createdAt,value
2023-01-27T00:00:52.572Z,102694.41
2023-01-27T00:03:20.188Z,102696.38
2023-01-27T00:05:48.007Z,102693.34
2023-01-27T00:08:15.901Z,102690.25
2023-01-27T00:11:26.504Z,102698.84
2023-01-27T00:13:53.764Z,102701.06
2023-01-27T00:16:20.952Z,102703.53
2023-01-27T00:18:48.179Z,102703.34
2023-01-27T00:21:33.651Z,102695.28
2023-01-27T00:24:19.326Z,102694.22
2023-01-27T00:26:46.232Z,102698.91
2023-01-27T00:29:12.994Z,102698.91
2023-01-27T00:31:58.400Z,102704.75
2023-01-27T00:34:27.511Z,102698.97
2023-01-27T00:36:54.526Z,102698.97
2023-01-27T00:39:21.191Z,102705.06
2023-01-27T00:41:50.872Z,102718.34
2023-01-27T00:44:18.053Z,102706.19
2023-01-27T00:46:45.523Z,102712.00
2023-01-27T00:49:13.558Z,102700.94
2023-01-27T00:51:40.370Z,102714.50
2023-01-27T00:54:07.162Z,102712.59
2023-01-27T00:56:34.278Z,102697.94
2023-01-27T00:59:01.052Z,102712.06
2023-01-27T01:01:28.187Z,102712.91
2023-01-27T01:03:55.153Z,102719.25
2023-01-27T01:06:22.124Z,102717.63
2023-01-27T01:08:53.613Z,102714.59
2023-01-27T01:11:21.532Z,102721.53
2023-01-27T01:13:49.113Z,102708.56
2023-01-27T01:16:21.238Z,102719.59
2023-01-27T01:18:51.782Z,102724.00
2023-01-27T01:21:20.468Z,102718.78
2023-01-27T01:23:47.710Z,102727.63
2023-01-27T01:26:26.910Z,102718.81
2023-01-27T01:29:05.303Z,102732.66
2023-01-27T01:31:32.557Z,102727.16
2023-01-27T01:33:59.446Z,102727.72
2023-01-27T01:36:26.371Z,102723.88
2023-01-27T01:38:55.936Z,102722.47
2023-01-27T01:41:24.821Z,102731.88
2023-01-27T01:43:52.122Z,102720.31
2023-01-27T01:46:19.332Z,102736.63
2023-01-27T01:48:52.355Z,102743.78
2023-01-27T01:51:29.894Z,102747.69
2023-01-27T01:53:58.331Z,102746.59
2023-01-27T01:56:36.257Z,102736.66
2023-01-27T01:59:07.983Z,102758.50
2023-01-27T02:01:35.546Z,102752.41
2023-01-27T02:04:05.737Z,102755.44
2023-01-27T02:06:40.388Z,102758.22
2023-01-27T02:09:07.463Z,102759.88
2023-01-27T02:11:34.144Z,102756.28
2023-01-27T02:14:02.297Z,102767.34
2023-01-27T02:16:29.712Z,102755.72
2023-01-27T02:18:58.261Z,102762.91
2023-01-27T02:21:25.153Z,102768.44
2023-01-27T02:24:01.462Z,102753.81
2023-01-27T02:26:29.249Z,102752.69
2023-01-27T02:28:58.998Z,102750.78
2023-01-27T02:31:26.670Z,102765.41
2023-01-27T02:33:55.274Z,102766.25
2023-01-27T02:36:22.259Z,102776.47
2023-01-27T02:38:51.121Z,102765.13
2023-01-27T02:41:26.608Z,102782.53
2023-01-27T02:43:54.457Z,102772.34
2023-01-27T02:46:21.246Z,102769.00
2023-01-27T02:48:48.077Z,102770.94
2023-01-27T02:51:14.984Z,102775.06
2023-01-27T02:53:43.537Z,102784.72
2023-01-27T02:56:10.711Z,102765.16
2023-01-27T02:58:37.631Z,102772.59
2023-01-27T03:01:11.892Z,102771.22
2023-01-27T03:03:44.075Z,102776.44
2023-01-27T03:06:11.362Z,102773.13
2023-01-27T03:08:38.185Z,102775.06
2023-01-27T03:11:05.634Z,102773.13
2023-01-27T03:13:32.738Z,102785.53
2023-01-27T03:16:19.332Z,102776.44
2023-01-27T03:18:49.727Z,102790.22
2023-01-27T03:21:18.484Z,102775.34
2023-01-27T03:23:49.201Z,102773.38
2023-01-27T03:26:20.738Z,102782.50
2023-01-27T03:29:12.289Z,102792.44
2023-01-27T03:31:42.090Z,102795.44
2023-01-27T03:34:10.050Z,102786.09
2023-01-27T03:37:10.543Z,102798.78
2023-01-27T03:39:55.980Z,102800.72
2023-01-27T03:42:41.768Z,102786.09
2023-01-27T03:45:27.343Z,102788.84
2023-01-27T03:47:54.070Z,102799.34
2023-01-27T03:50:20.763Z,102798.50
2023-01-27T03:53:03.422Z,102810.09
2023-01-27T03:55:31.483Z,102818.38
2023-01-27T03:58:14.006Z,102820.59
2023-01-27T04:00:41.329Z,102821.13
2023-01-27T04:03:26.424Z,102826.66
2023-01-27T04:06:11.910Z,102823.09
2023-01-27T04:08:38.578Z,102829.69
2023-01-27T04:11:24.506Z,102847.91
2023-01-27T04:13:51.291Z,102831.63
2023-01-27T04:16:19.902Z,102833.53
2023-01-27T04:18:48.062Z,102832.75
2023-01-27T04:21:16.027Z,102837.97
2023-01-27T04:23:42.667Z,102836.31
2023-01-27T04:26:09.425Z,102826.09
2023-01-27T04:28:44.416Z,102849.31
2023-01-27T04:31:11.784Z,102837.16
2023-01-27T04:33:38.611Z,102841.88
2023-01-27T04:36:05.596Z,102837.16
2023-01-27T04:38:33.080Z,102842.69
2023-01-27T04:41:00.240Z,102845.44
2023-01-27T04:43:27.129Z,102838.53
2023-01-27T04:45:54.039Z,102839.91
2023-01-27T04:48:20.839Z,102838.81
2023-01-27T04:50:47.761Z,102834.69
2023-01-27T04:53:14.466Z,102842.13
2023-01-27T04:55:43.303Z,102846.25
2023-01-27T04:58:13.235Z,102860.91
2023-01-27T05:00:40.055Z,102850.16
2023-01-27T05:03:06.874Z,102847.38
2023-01-27T05:05:33.604Z,102853.44
2023-01-27T05:08:07.317Z,102850.94
2023-01-27T05:10:34.131Z,102860.91
2023-01-27T05:13:02.146Z,102858.16
2023-01-27T05:15:30.403Z,102866.13
2023-01-27T05:17:57.278Z,102861.19
2023-01-27T05:20:23.970Z,102866.72
2023-01-27T05:22:51.711Z,102863.66
2023-01-27T05:25:18.411Z,102859.75
2023-01-27T05:27:45.545Z,102857.56
2023-01-27T05:30:12.788Z,102863.66
2023-01-27T05:32:39.452Z,102858.66
2023-01-27T05:35:06.792Z,102871.09
2023-01-27T05:37:33.572Z,102875.00
2023-01-27T05:40:00.271Z,102869.16
2023-01-27T05:42:27.107Z,102873.56
2023-01-27T05:44:53.863Z,102878.53
2023-01-27T05:47:20.615Z,102884.03
2023-01-27T05:49:47.328Z,102896.47
2023-01-27T05:52:14.255Z,102887.94
2023-01-27T05:54:41.023Z,102885.44
2023-01-27T05:57:07.888Z,102897.03
2023-01-27T05:59:34.567Z,102885.72
2023-01-27T06:02:01.342Z,102893.16
2023-01-27T06:04:28.551Z,102884.59
2023-01-27T06:06:55.353Z,102892.06
2023-01-27T06:09:22.218Z,102888.47
2023-01-27T06:11:48.976Z,102895.06
2023-01-27T06:14:15.675Z,102890.91
2023-01-27T06:16:43.655Z,102895.25
2023-01-27T06:19:13.578Z,102891.94
2023-01-27T06:21:42.505Z,102898.00
2023-01-27T06:24:12.659Z,102900.75
2023-01-27T06:26:43.460Z,102903.16
2023-01-27T06:29:10.121Z,102896.63
2023-01-27T06:31:36.977Z,102906.47
2023-01-27T06:34:03.835Z,102906.44
2023-01-27T06:36:30.572Z,102906.50
2023-01-27T06:38:57.387Z,102905.59
2023-01-27T06:41:24.873Z,102896.81
2023-01-27T06:43:51.964Z,102905.91
2023-01-27T06:46:18.721Z,102898.41
2023-01-27T06:48:45.690Z,102894.50
2023-01-27T06:51:12.492Z,102887.28
2023-01-27T06:53:39.312Z,102879.81
2023-01-27T06:56:06.728Z,102893.66
2023-01-27T06:58:33.776Z,102892.31
2023-01-27T07:01:00.627Z,102893.47
2023-01-27T07:03:27.496Z,102903.69
2023-01-27T07:05:54.268Z,102897.31
2023-01-27T07:08:21.148Z,102897.91
2023-01-27T07:10:48.370Z,102905.06
2023-01-27T07:13:16.086Z,102913.81
2023-01-27T07:15:43.119Z,102917.91
2023-01-27T07:18:11.381Z,102930.03
2023-01-27T07:20:38.728Z,102939.97
2023-01-27T07:23:06.071Z,102952.59
2023-01-27T07:25:34.626Z,102946.56
2023-01-27T07:28:02.661Z,102942.41
2023-01-27T07:30:29.963Z,102949.69
2023-01-27T07:33:03.527Z,102950.00
2023-01-27T07:35:30.545Z,102947.75
2023-01-27T07:37:58.283Z,102950.75
2023-01-27T07:40:25.967Z,102950.66
2023-01-27T07:42:52.814Z,102964.28
2023-01-27T07:45:19.937Z,102954.00
2023-01-27T07:47:46.884Z,102959.53
2023-01-27T07:50:13.769Z,102953.78
2023-01-27T07:52:40.837Z,102961.50
2023-01-27T07:55:08.296Z,102941.13
2023-01-27T07:57:35.132Z,102955.16
2023-01-27T08:00:02.398Z,102945.72
2023-01-27T08:02:39.057Z,102952.06
2023-01-27T08:05:05.967Z,102954.00
2023-01-27T08:07:32.976Z,102970.59
2023-01-27T08:10:00.211Z,102967.22
2023-01-27T08:12:27.417Z,102969.41
2023-01-27T08:14:54.124Z,102969.41
2023-01-27T08:17:21.306Z,102976.09
2023-01-27T08:19:50.776Z,102973.97
2023-01-27T08:22:21.587Z,102972.34
2023-01-27T08:24:49.448Z,102980.91
2023-01-27T08:27:17.576Z,102981.78
2023-01-27T08:29:44.735Z,102983.16
2023-01-27T08:32:14.876Z,102981.50
2023-01-27T08:34:42.511Z,102999.16
2023-01-27T08:37:09.537Z,102996.97
2023-01-27T08:39:36.557Z,102995.66
2023-01-27T08:42:03.650Z,102996.22
2023-01-27T08:44:30.768Z,102991.00
2023-01-27T08:46:57.613Z,103001.75
2023-01-27T08:49:24.668Z,102992.97
2023-01-27T08:51:51.373Z,102984.44
2023-01-27T08:54:18.467Z,102990.28
2023-01-27T08:56:45.489Z,102997.47
2023-01-27T08:59:12.769Z,103001.38
2023-01-27T09:01:41.824Z,102993.94
2023-01-27T09:04:08.986Z,102993.09
2023-01-27T09:06:36.136Z,102991.09
2023-01-27T09:09:11.494Z,103000.47
2023-01-27T09:11:41.331Z,102997.97
2023-01-27T09:14:08.713Z,102994.69
2023-01-27T09:16:36.067Z,102997.75
2023-01-27T09:19:04.256Z,102992.31
2023-01-27T09:21:31.137Z,102995.06
2023-01-27T09:23:58.069Z,103001.19
2023-01-27T09:26:25.223Z,103004.50
2023-01-27T09:28:52.720Z,103005.63
2023-01-27T09:31:19.891Z,103004.28
2023-01-27T09:33:46.928Z,103000.94
2023-01-27T09:36:21.548Z,103010.94
2023-01-27T09:39:08.155Z,103011.50
2023-01-27T09:41:51.117Z,103012.06
2023-01-27T09:44:33.139Z,103006.81
2023-01-27T09:47:23.509Z,103013.19
2023-01-27T09:50:13.467Z,103018.78
2023-01-27T09:52:59.256Z,103011.63
2023-01-27T09:55:31.046Z,103008.06
2023-01-27T09:58:01.033Z,103002.50
2023-01-27T10:00:57.396Z,103013.00
2023-01-27T10:03:50.517Z,103014.69
2023-01-27T10:06:52.017Z,103007.78
2023-01-27T10:09:39.806Z,103009.75
2023-01-27T10:12:36.458Z,103017.19
2023-01-27T10:15:19.834Z,103018.59
2023-01-27T10:18:26.093Z,103016.72
2023-01-27T10:21:08.276Z,103016.75
2023-01-27T10:23:51.878Z,103012.06
2023-01-27T10:26:18.796Z,103021.44
2023-01-27T10:28:51.320Z,103016.75
2023-01-27T10:31:29.260Z,103016.22
2023-01-27T10:34:01.830Z,103025.88
2023-01-27T10:36:38.219Z,103022.59
2023-01-27T10:39:12.674Z,103014.84
2023-01-27T10:42:04.907Z,103010.47
2023-01-27T10:44:47.287Z,103006.56
2023-01-27T10:47:52.315Z,103008.53
2023-01-27T10:50:35.700Z,103007.41
2023-01-27T10:53:20.685Z,103008.50
2023-01-27T10:55:59.680Z,103005.19
2023-01-27T10:58:47.677Z,103003.81
2023-01-27T11:01:21.299Z,102999.41
2023-01-27T11:03:59.789Z,103009.06
2023-01-27T11:06:33.996Z,102994.69
2023-01-27T11:09:31.794Z,103002.69
2023-01-27T11:12:03.215Z,102997.47
2023-01-27T11:14:51.605Z,103002.16
2023-01-27T11:17:47.656Z,103004.63
2023-01-27T11:20:36.283Z,103000.25
2023-01-27T11:23:06.327Z,102995.56
2023-01-27T11:26:11.342Z,102995.50
2023-01-27T11:28:47.733Z,102996.91
2023-01-27T11:31:39.463Z,103003.78
2023-01-27T11:34:16.419Z,102996.84
2023-01-27T11:36:43.597Z,102992.22
2023-01-27T11:39:11.838Z,102990.25
2023-01-27T11:41:42.003Z,102993.03
2023-01-27T11:44:30.098Z,102991.94
2023-01-27T11:46:56.994Z,102992.22
2023-01-27T11:49:26.539Z,102995.22
2023-01-27T11:52:05.963Z,102994.41
2023-01-27T11:54:43.648Z,102983.63
2023-01-27T11:57:20.667Z,102977.25
2023-01-27T11:59:49.245Z,102987.50
2023-01-27T12:02:35.443Z,102975.63
2023-01-27T12:05:02.437Z,102980.06
2023-01-27T12:07:56.999Z,102972.03
2023-01-27T12:10:23.895Z,102962.34
2023-01-27T12:12:50.986Z,102958.22
2023-01-27T12:15:20.338Z,102959.88
2023-01-27T12:17:50.635Z,102959.59
2023-01-27T12:20:29.579Z,102957.94
2023-01-27T12:23:22.719Z,102964.03
2023-01-27T12:25:56.381Z,102954.34
2023-01-27T12:28:29.936Z,102959.28
2023-01-27T12:31:05.688Z,102967.03
2023-01-27T12:33:33.966Z,102956.28
2023-01-27T12:36:01.935Z,102951.84
2023-01-27T12:38:35.616Z,102952.13
2023-01-27T12:41:07.828Z,102951.59
2023-01-27T12:44:10.214Z,102962.09
2023-01-27T12:46:40.556Z,102954.34
2023-01-27T12:49:15.193Z,102951.59
2023-01-27T12:51:48.730Z,102952.44
2023-01-27T12:54:24.619Z,102954.91
2023-01-27T12:56:53.536Z,102949.38
2023-01-27T12:59:23.806Z,102951.84
2023-01-27T13:01:59.047Z,102950.75
2023-01-27T13:04:27.401Z,102941.91
2023-01-27T13:07:00.795Z,102949.38
2023-01-27T13:09:49.256Z,102941.91
2023-01-27T13:12:28.043Z,102945.75
2023-01-27T13:14:58.377Z,102950.47
2023-01-27T13:17:31.140Z,102949.63
2023-01-27T13:20:07.813Z,102950.69
2023-01-27T13:22:41.766Z,102947.13
2023-01-27T13:25:17.156Z,102945.13
2023-01-27T13:27:44.588Z,102957.00
2023-01-27T13:30:35.761Z,102960.09
2023-01-27T13:33:21.956Z,102949.31
2023-01-27T13:36:00.617Z,102959.47
2023-01-27T13:38:51.194Z,102960.06
2023-01-27T13:41:32.952Z,102967.53
2023-01-27T13:44:20.518Z,102963.63
2023-01-27T13:46:48.216Z,102961.69
2023-01-27T13:49:37.085Z,102968.28
2023-01-27T13:52:05.806Z,102966.84
2023-01-27T13:54:32.779Z,102969.94
2023-01-27T13:57:15.076Z,102977.13
2023-01-27T13:59:54.128Z,102976.84
2023-01-27T14:02:33.725Z,102976.81
2023-01-27T14:05:31.541Z,102976.53
2023-01-27T14:08:08.340Z,102975.13
2023-01-27T14:10:49.987Z,102974.06
2023-01-27T14:13:26.637Z,102973.53
2023-01-27T14:16:43.135Z,102973.53
2023-01-27T14:19:48.141Z,102974.13
2023-01-27T14:22:25.857Z,102973.28
2023-01-27T14:24:57.918Z,102968.56
2023-01-27T14:27:46.875Z,102972.97
2023-01-27T14:30:30.075Z,102969.34
2023-01-27T14:33:27.521Z,102976.50
2023-01-27T14:36:11.524Z,102974.28
2023-01-27T14:39:06.237Z,102980.66
2023-01-27T14:42:01.472Z,102976.50
2023-01-27T14:45:05.905Z,102979.28
2023-01-27T14:47:39.022Z,102980.63
2023-01-27T14:50:51.419Z,102982.00
2023-01-27T14:54:03.099Z,102981.19
2023-01-27T14:56:44.044Z,102982.28
2023-01-27T14:59:31.134Z,102991.94
2023-01-27T15:02:24.803Z,102991.38
2023-01-27T15:05:12.610Z,102995.53
2023-01-27T15:07:59.001Z,102994.41
2023-01-27T15:10:28.142Z,102998.28
2023-01-27T15:13:26.238Z,102998.28
2023-01-27T15:16:07.351Z,102992.97
2023-01-27T15:19:00.414Z,102993.84
2023-01-27T15:21:38.723Z,102994.94
2023-01-27T15:24:17.485Z,102989.72
2023-01-27T15:26:44.452Z,102998.81
2023-01-27T15:29:15.657Z,102992.13
2023-01-27T15:31:44.433Z,102994.91
2023-01-27T15:34:14.405Z,102999.88
2023-01-27T15:37:01.819Z,102998.16
2023-01-27T15:39:40.436Z,102997.34
2023-01-27T15:42:10.764Z,103005.41
2023-01-27T15:45:01.385Z,103006.19
2023-01-27T15:47:37.658Z,103001.19
2023-01-27T15:50:11.388Z,103011.72
2023-01-27T15:52:42.004Z,103012.78
2023-01-27T15:55:23.446Z,103018.00
2023-01-27T15:57:54.092Z,103012.22
2023-01-27T16:00:42.362Z,103024.88
2023-01-27T16:03:21.580Z,103006.97
2023-01-27T16:05:52.215Z,103009.72
2023-01-27T16:08:19.499Z,103026.56
2023-01-27T16:10:46.575Z,103025.72
2023-01-27T16:13:27.065Z,103032.06
2023-01-27T16:16:17.116Z,103025.16
2023-01-27T16:18:57.520Z,103033.72
2023-01-27T16:21:42.327Z,103030.69
2023-01-27T16:24:42.143Z,103033.72
2023-01-27T16:27:34.709Z,103034.25
2023-01-27T16:30:13.245Z,103033.69
2023-01-27T16:32:52.406Z,103042.72
2023-01-27T16:35:19.758Z,103044.41
2023-01-27T16:38:01.852Z,103040.81
2023-01-27T16:40:29.373Z,103034.22
2023-01-27T16:43:02.559Z,103040.53
2023-01-27T16:45:38.960Z,103036.66
2023-01-27T16:48:08.011Z,103041.09
2023-01-27T16:50:36.413Z,103043.56
2023-01-27T16:53:04.629Z,103056.78
2023-01-27T16:55:31.478Z,103058.72
2023-01-27T16:57:59.467Z,103053.72
2023-01-27T17:00:29.128Z,103044.38
2023-01-27T17:02:59.872Z,103059.78
2023-01-27T17:05:27.208Z,103058.97
2023-01-27T17:08:04.057Z,103068.03
2023-01-27T17:10:35.435Z,103071.34
2023-01-27T17:13:02.589Z,103061.41
2023-01-27T17:15:37.189Z,103068.88
2023-01-27T17:18:09.684Z,103060.88
2023-01-27T17:20:39.401Z,103066.38
2023-01-27T17:23:06.768Z,103074.63
2023-01-27T17:25:39.048Z,103080.41
2023-01-27T17:28:10.828Z,103076.25
2023-01-27T17:30:40.185Z,103071.88
2023-01-27T17:33:08.818Z,103093.13
2023-01-27T17:35:36.992Z,103086.72
2023-01-27T17:38:06.920Z,103085.34
2023-01-27T17:40:39.186Z,103086.72
2023-01-27T17:43:25.888Z,103087.00
2023-01-27T17:46:09.775Z,103098.03
2023-01-27T17:48:41.058Z,103094.44
2023-01-27T17:51:10.198Z,103112.06
2023-01-27T17:53:39.188Z,103105.16
2023-01-27T17:56:23.056Z,103102.94
2023-01-27T17:58:54.102Z,103112.59
2023-01-27T18:01:21.654Z,103105.09
2023-01-27T18:03:52.976Z,103108.69
2023-01-27T18:06:22.745Z,103117.53
2023-01-27T18:08:51.669Z,103119.22
2023-01-27T18:11:37.499Z,103120.00
2023-01-27T18:14:09.323Z,103120.81
2023-01-27T18:16:36.375Z,103125.56
2023-01-27T18:19:23.724Z,103130.66
2023-01-27T18:22:04.520Z,103130.66
2023-01-27T18:24:31.619Z,103132.56
2023-01-27T18:26:58.470Z,103136.41
2023-01-27T18:29:35.378Z,103140.00
2023-01-27T18:32:15.466Z,103145.50
2023-01-27T18:34:57.281Z,103135.84
2023-01-27T18:37:32.990Z,103142.72
2023-01-27T18:40:01.594Z,103142.72
2023-01-27T18:42:30.819Z,103150.13
2023-01-27T18:44:57.830Z,103152.91
2023-01-27T18:47:34.249Z,103159.75
2023-01-27T18:50:10.533Z,103158.63
2023-01-27T18:52:38.137Z,103158.88
2023-01-27T18:55:26.973Z,103156.88
2023-01-27T18:57:55.907Z,103163.19
2023-01-27T19:00:31.316Z,103170.09
2023-01-27T19:03:01.007Z,103166.28
2023-01-27T19:05:35.772Z,103165.44
2023-01-27T19:08:03.055Z,103167.06
2023-01-27T19:10:32.142Z,103164.91
2023-01-27T19:13:00.844Z,103166.78
2023-01-27T19:15:30.797Z,103173.44
2023-01-27T19:17:58.833Z,103171.78
2023-01-27T19:20:30.289Z,103176.44
2023-01-27T19:22:58.380Z,103174.78
2023-01-27T19:25:28.486Z,103177.19
2023-01-27T19:27:57.693Z,103172.22
2023-01-27T19:30:27.139Z,103166.97
2023-01-27T19:32:57.578Z,103168.63
2023-01-27T19:35:26.097Z,103166.78
2023-01-27T19:37:54.667Z,103163.19
2023-01-27T19:40:23.940Z,103160.03
2023-01-27T19:42:50.868Z,103163.91
2023-01-27T19:45:18.762Z,103154.81
2023-01-27T19:47:49.020Z,103168.31
2023-01-27T19:50:25.457Z,103158.41
2023-01-27T19:52:52.132Z,103164.53
2023-01-27T19:55:22.932Z,103165.56
2023-01-27T19:57:50.795Z,103169.66
2023-01-27T20:00:36.539Z,103177.34
2023-01-27T20:03:04.272Z,103169.09
2023-01-27T20:05:34.574Z,103163.25
2023-01-27T20:08:02.792Z,103170.78
2023-01-27T20:10:32.586Z,103162.50
2023-01-27T20:13:00.471Z,103167.69
2023-01-27T20:15:29.826Z,103157.94
2023-01-27T20:17:56.673Z,103160.50
2023-01-27T20:20:24.977Z,103167.69
2023-01-27T20:22:53.111Z,103155.31
2023-01-27T20:25:25.409Z,103157.22
2023-01-27T20:27:54.841Z,103147.06
2023-01-27T20:30:27.059Z,103152.00
2023-01-27T20:32:56.149Z,103150.94
2023-01-27T20:35:23.289Z,103145.97
2023-01-27T20:37:51.310Z,103147.63
2023-01-27T20:40:20.987Z,103153.97
2023-01-27T20:42:47.996Z,103146.53
2023-01-27T20:45:15.953Z,103151.78
2023-01-27T20:47:43.099Z,103143.72
2023-01-27T20:50:10.889Z,103147.00
2023-01-27T20:52:38.154Z,103142.84
2023-01-27T20:55:05.511Z,103140.09
2023-01-27T20:57:33.920Z,103136.50
2023-01-27T21:00:01.042Z,103142.56
2023-01-27T21:02:30.709Z,103146.59
2023-01-27T21:04:57.791Z,103144.97
2023-01-27T21:07:24.802Z,103149.63
2023-01-27T21:09:53.529Z,103145.47
2023-01-27T21:12:21.077Z,103138.34
2023-01-27T21:14:48.347Z,103141.59
2023-01-27T21:17:15.218Z,103146.53
2023-01-27T21:19:42.171Z,103151.53
2023-01-27T21:22:08.936Z,103147.44
2023-01-27T21:24:35.733Z,103149.69
2023-01-27T21:27:03.285Z,103140.59
2023-01-27T21:29:30.297Z,103142.50
2023-01-27T21:31:57.304Z,103134.00
2023-01-27T21:34:24.048Z,103138.66
2023-01-27T21:36:50.797Z,103141.66
2023-01-27T21:39:17.600Z,103143.50
2023-01-27T21:41:53.569Z,103142.38
2023-01-27T21:44:47.639Z,103131.81
2023-01-27T21:47:18.859Z,103129.63
2023-01-27T21:50:02.588Z,103135.66
2023-01-27T21:52:33.985Z,103137.72
2023-01-27T21:55:02.687Z,103132.78
2023-01-27T21:57:29.440Z,103133.28
2023-01-27T21:59:56.354Z,103130.47
2023-01-27T22:02:23.090Z,103130.72
2023-01-27T22:04:50.030Z,103119.69
2023-01-27T22:07:18.214Z,103119.13
2023-01-27T22:09:45.946Z,103126.53
2023-01-27T22:12:14.440Z,103123.00
2023-01-27T22:14:41.443Z,103116.63
2023-01-27T22:17:09.471Z,103116.13
2023-01-27T22:19:39.488Z,103122.78
2023-01-27T22:22:10.576Z,103123.28
2023-01-27T22:24:37.379Z,103111.97
2023-01-27T22:27:04.376Z,103115.28
2023-01-27T22:29:31.574Z,103121.03
2023-01-27T22:31:58.309Z,103121.09
2023-01-27T22:34:25.491Z,103115.28
2023-01-27T22:36:52.379Z,103116.19
2023-01-27T22:39:19.451Z,103116.44
2023-01-27T22:41:46.739Z,103112.84
2023-01-27T22:44:13.956Z,103118.34
2023-01-27T22:46:41.671Z,103117.78
2023-01-27T22:49:08.992Z,103110.56
2023-01-27T22:51:35.896Z,103118.22
2023-01-27T22:54:02.600Z,103117.94
2023-01-27T22:56:29.400Z,103125.91
2023-01-27T22:58:56.239Z,103125.69
2023-01-27T23:01:23.109Z,103125.91
2023-01-27T23:03:50.049Z,103130.09
2023-01-27T23:06:17.073Z,103122.94
2023-01-27T23:08:44.268Z,103123.44
2023-01-27T23:11:11.119Z,103115.69
2023-01-27T23:13:37.879Z,103129.25
2023-01-27T23:16:05.067Z,103121.25
2023-01-27T23:18:32.596Z,103125.59
2023-01-27T23:21:07.464Z,103123.94
2023-01-27T23:23:35.688Z,103131.03
2023-01-27T23:26:06.432Z,103127.47
2023-01-27T23:28:33.363Z,103120.63
2023-01-27T23:31:02.167Z,103124.19
2023-01-27T23:33:34.773Z,103131.03
2023-01-27T23:36:02.056Z,103133.78
2023-01-27T23:38:33.001Z,103130.81
2023-01-27T23:41:12.645Z,103119.78
2023-01-27T23:43:39.478Z,103117.88
2023-01-27T23:46:06.232Z,103124.44
2023-01-27T23:48:33.043Z,103132.72
2023-01-27T23:51:06.013Z,103119.84
2023-01-27T23:53:32.837Z,103129.13
2023-01-27T23:56:00.002Z,103129.06
2023-01-27T23:58:27.620Z,103129.91
